Terminal Aerodrome Forecast
Issued by NWS

Home | Current Version | Previous Version | Text Only | Print | Product List | Glossary On
Versions: 1 2 3 4 5 6 7 8 9 10 11 12 13 14 15
000
FTAK31 PAJN 261100
TAFAWG
TAF
PAWG 261125Z 2612/2712 12004KT P6SM VCSH FEW005 BKN025 OVC040
      TEMPO 2612/2616 5SM BR FEW005 BKN015
     FM261800 06004KT P6SM FEW005 BKN060
     FM270400 10004KT P6SM VCFG FEW005 BKN060
      AMD LTD TO CLD VIS AND WIND 2612/2615=

USA.gov is the U.S. government's official web portal to all federal, state and local government web resources and services.